createdAt,value
2018-09-06T00:00:55.244Z,26.60
2018-09-06T00:03:23.552Z,26.60
2018-09-06T00:05:51.980Z,26.60
2018-09-06T00:08:20.348Z,26.60
2018-09-06T00:10:48.768Z,26.50
2018-09-06T00:13:17.171Z,26.50
2018-09-06T00:15:45.691Z,26.50
2018-09-06T00:18:14.064Z,26.50
2018-09-06T00:20:42.380Z,26.50
2018-09-06T00:23:10.804Z,26.40
2018-09-06T00:25:39.104Z,26.40
2018-09-06T00:28:07.655Z,26.30
2018-09-06T00:30:36.009Z,26.30
2018-09-06T00:33:04.276Z,26.30
2018-09-06T00:35:32.592Z,26.30
2018-09-06T00:38:00.940Z,26.30
2018-09-06T00:40:29.246Z,26.30
2018-09-06T00:42:57.568Z,26.20
2018-09-06T00:45:25.920Z,26.20
2018-09-06T00:47:54.243Z,26.20
2018-09-06T00:50:22.877Z,26.20
2018-09-06T00:52:52.366Z,26.20
2018-09-06T00:55:21.476Z,26.10
2018-09-06T00:57:49.995Z,26.10
2018-09-06T01:00:18.379Z,26.00
2018-09-06T01:02:46.804Z,26.00
2018-09-06T01:05:15.096Z,25.90
2018-09-06T01:07:43.451Z,25.90
2018-09-06T01:10:11.408Z,25.80
2018-09-06T01:12:39.738Z,25.80
2018-09-06T01:15:08.021Z,25.70
2018-09-06T01:17:36.465Z,25.70
2018-09-06T01:20:04.793Z,25.60
2018-09-06T01:22:33.104Z,25.60
2018-09-06T01:25:01.453Z,25.60
2018-09-06T01:27:29.858Z,25.50
2018-09-06T01:29:58.210Z,25.40
2018-09-06T01:32:26.555Z,25.40
2018-09-06T01:34:54.850Z,25.30
2018-09-06T01:37:23.234Z,25.30
2018-09-06T01:39:51.779Z,25.20
2018-09-06T01:42:20.176Z,25.20
2018-09-06T01:44:48.627Z,25.10
2018-09-06T01:47:17.038Z,25.00
2018-09-06T01:49:45.365Z,25.00
2018-09-06T01:52:13.764Z,25.00
2018-09-06T01:54:42.063Z,24.90
2018-09-06T01:57:10.458Z,24.90
2018-09-06T01:59:40.271Z,24.90
2018-09-06T02:02:09.011Z,24.90
2018-09-06T02:04:37.907Z,24.90
2018-09-06T02:07:06.950Z,24.80
2018-09-06T02:09:35.276Z,24.80
2018-09-06T02:12:03.663Z,24.70
2018-09-06T02:14:31.984Z,24.80
2018-09-06T02:17:00.441Z,24.70
2018-09-06T02:19:28.769Z,24.70
2018-09-06T02:21:57.086Z,24.70
2018-09-06T02:24:25.436Z,24.70
2018-09-06T02:26:54.605Z,24.70
2018-09-06T02:29:23.007Z,24.60
2018-09-06T02:31:51.326Z,24.70
2018-09-06T02:34:19.724Z,24.60
2018-09-06T02:36:48.217Z,24.60
2018-09-06T02:39:16.718Z,24.50
2018-09-06T02:41:45.065Z,24.50
2018-09-06T02:44:13.368Z,24.40
2018-09-06T02:46:41.676Z,24.40
2018-09-06T02:49:10.391Z,24.40
2018-09-06T02:51:38.795Z,24.30
2018-09-06T02:54:07.179Z,24.30
2018-09-06T02:56:35.523Z,24.30
2018-09-06T02:59:03.837Z,24.20
2018-09-06T03:01:32.223Z,24.30
2018-09-06T03:04:00.602Z,24.30
2018-09-06T03:06:28.932Z,24.20
2018-09-06T03:08:57.341Z,24.30
2018-09-06T03:11:29.912Z,24.20
2018-09-06T03:13:58.422Z,24.10
2018-09-06T03:16:26.779Z,24.00
2018-09-06T03:18:55.130Z,24.00
2018-09-06T03:21:23.547Z,24.00
2018-09-06T03:23:51.953Z,24.00
2018-09-06T03:26:20.799Z,23.90
2018-09-06T03:28:50.989Z,23.90
2018-09-06T03:31:19.374Z,23.90
2018-09-06T03:33:47.753Z,23.90
2018-09-06T03:36:16.258Z,23.90
2018-09-06T03:38:45.536Z,23.80
2018-09-06T03:41:14.317Z,23.80
2018-09-06T03:43:42.705Z,23.70
2018-09-06T03:46:11.048Z,23.70
2018-09-06T03:48:39.371Z,23.70
2018-09-06T03:51:07.742Z,23.70
2018-09-06T03:53:36.412Z,23.70
2018-09-06T03:56:04.883Z,23.70
2018-09-06T03:58:33.248Z,23.70
2018-09-06T04:01:01.594Z,23.70
2018-09-06T04:03:30.044Z,23.60
2018-09-06T04:05:58.420Z,23.60
2018-09-06T04:08:26.795Z,23.60
2018-09-06T04:10:55.095Z,23.60
2018-09-06T04:13:23.423Z,23.50
2018-09-06T04:15:51.762Z,23.50
2018-09-06T04:18:20.139Z,23.50
2018-09-06T04:20:48.492Z,23.50
2018-09-06T04:23:16.864Z,23.50
2018-09-06T04:25:45.194Z,23.40
2018-09-06T04:28:13.570Z,23.40
2018-09-06T04:30:41.984Z,23.40
2018-09-06T04:33:10.349Z,23.40
2018-09-06T04:35:38.661Z,23.40
2018-09-06T04:38:06.970Z,23.30
2018-09-06T04:40:35.300Z,23.20
2018-09-06T04:43:03.596Z,23.20
2018-09-06T04:45:31.886Z,23.10
2018-09-06T04:48:00.206Z,23.00
2018-09-06T04:50:28.549Z,23.00
2018-09-06T04:52:56.969Z,23.00
2018-09-06T04:55:25.423Z,22.90
2018-09-06T04:57:53.660Z,23.00
2018-09-06T05:00:22.004Z,23.00
2018-09-06T05:02:50.484Z,23.00
2018-09-06T05:05:18.835Z,23.00
2018-09-06T05:07:47.278Z,23.10
2018-09-06T05:10:15.590Z,23.10
2018-09-06T05:12:43.934Z,23.10
2018-09-06T05:15:12.261Z,23.10
2018-09-06T05:17:40.585Z,23.20
2018-09-06T05:20:08.879Z,23.20
2018-09-06T05:22:37.158Z,23.20
2018-09-06T05:25:05.500Z,23.20
2018-09-06T05:27:33.801Z,23.20
2018-09-06T05:30:02.116Z,23.20
2018-09-06T05:32:30.415Z,23.20
2018-09-06T05:34:58.826Z,23.30
2018-09-06T05:37:27.133Z,23.30
2018-09-06T05:39:55.447Z,23.40
2018-09-06T05:42:23.737Z,23.40
2018-09-06T05:44:52.075Z,23.50
2018-09-06T05:47:20.482Z,23.60
2018-09-06T05:49:48.962Z,23.60
2018-09-06T05:52:17.312Z,23.70
2018-09-06T05:54:45.902Z,23.80
2018-09-06T05:57:14.170Z,23.80
2018-09-06T05:59:42.599Z,23.90
2018-09-06T06:02:10.938Z,24.00
2018-09-06T06:04:39.255Z,24.10
2018-09-06T06:07:07.587Z,24.10
2018-09-06T06:09:35.936Z,24.20
2018-09-06T06:12:04.243Z,24.30
2018-09-06T06:14:32.566Z,24.30
2018-09-06T06:17:00.974Z,24.40
2018-09-06T06:19:29.311Z,24.50
2018-09-06T06:21:57.646Z,24.60
2018-09-06T06:24:25.976Z,24.70
2018-09-06T06:26:54.455Z,24.80
2018-09-06T06:29:22.848Z,24.90
2018-09-06T06:31:51.228Z,25.00
2018-09-06T06:34:19.529Z,25.10
2018-09-06T06:36:47.896Z,25.20
2018-09-06T06:39:16.687Z,25.30
2018-09-06T06:41:44.958Z,25.40
2018-09-06T06:44:13.255Z,25.60
2018-09-06T06:46:41.543Z,25.60
2018-09-06T06:49:09.846Z,25.70
2018-09-06T06:51:38.159Z,25.80
2018-09-06T06:54:06.668Z,25.90
2018-09-06T06:56:34.990Z,26.00
2018-09-06T06:59:03.321Z,26.00
2018-09-06T07:01:31.652Z,26.10
2018-09-06T07:03:59.953Z,26.10
2018-09-06T07:06:28.295Z,26.10
2018-09-06T07:08:56.608Z,26.10
2018-09-06T07:11:24.925Z,26.10
2018-09-06T07:13:53.254Z,26.10
2018-09-06T07:16:21.800Z,26.20
2018-09-06T07:18:50.558Z,26.30
2018-09-06T07:21:18.925Z,26.30
2018-09-06T07:23:47.475Z,26.40
2018-09-06T07:26:15.869Z,26.40
2018-09-06T07:28:44.343Z,26.60
2018-09-06T07:31:12.659Z,26.70
2018-09-06T07:33:40.989Z,26.80
2018-09-06T07:36:09.342Z,27.00
2018-09-06T07:38:37.832Z,27.20
2018-09-06T07:41:06.269Z,27.30
2018-09-06T07:43:34.638Z,27.40
2018-09-06T07:46:02.943Z,27.60
2018-09-06T07:48:31.344Z,27.70
2018-09-06T07:50:59.675Z,27.80
2018-09-06T07:53:27.994Z,28.00
2018-09-06T07:55:56.308Z,28.30
2018-09-06T07:58:24.766Z,28.50
2018-09-06T08:00:53.151Z,28.80
2018-09-06T08:03:21.495Z,29.00
2018-09-06T08:05:49.856Z,29.30
2018-09-06T08:08:18.202Z,29.40
2018-09-06T08:10:46.631Z,29.60
2018-09-06T08:13:14.927Z,29.80
2018-09-06T08:15:43.311Z,29.90
2018-09-06T08:18:11.582Z,30.20
2018-09-06T08:20:39.916Z,30.30
2018-09-06T08:23:08.248Z,30.50
2018-09-06T08:25:36.555Z,30.80
2018-09-06T08:28:04.895Z,31.30
2018-09-06T08:30:34.070Z,31.70
2018-09-06T08:33:02.275Z,32.20
2018-09-06T08:35:30.610Z,32.70
2018-09-06T08:37:58.934Z,33.10
2018-09-06T08:40:27.275Z,33.40
2018-09-06T08:42:55.591Z,33.80
2018-09-06T08:45:23.956Z,33.90
2018-09-06T08:47:52.232Z,34.10
2018-09-06T08:50:20.564Z,34.50
2018-09-06T08:52:48.894Z,34.80
2018-09-06T08:55:17.239Z,34.80
2018-09-06T08:57:45.556Z,34.70
2018-09-06T09:00:13.875Z,34.60
2018-09-06T09:02:42.275Z,34.30
2018-09-06T09:05:10.498Z,34.10
2018-09-06T09:07:38.878Z,33.80
2018-09-06T09:10:07.203Z,33.50
2018-09-06T09:12:35.667Z,33.10
2018-09-06T09:15:03.992Z,32.70
2018-09-06T09:17:32.323Z,32.20
2018-09-06T09:20:00.632Z,31.70
2018-09-06T09:22:29.148Z,31.30
2018-09-06T09:24:57.340Z,30.80
2018-09-06T09:27:25.663Z,30.40
2018-09-06T09:29:53.994Z,30.00
2018-09-06T09:32:22.495Z,29.60
2018-09-06T09:34:50.867Z,29.20
2018-09-06T09:37:19.255Z,28.70
2018-09-06T09:39:47.766Z,28.20
2018-09-06T09:42:16.144Z,27.60
2018-09-06T09:44:44.450Z,27.30
2018-09-06T09:49:40.432Z,26.90
2018-09-06T09:52:08.671Z,26.80
2018-09-06T09:54:36.981Z,26.80
2018-09-06T09:57:05.799Z,26.60
2018-09-06T09:59:34.216Z,26.50
2018-09-06T10:02:08.022Z,26.50
2018-09-06T10:04:43.590Z,26.40
2018-09-06T10:07:17.477Z,26.40
2018-09-06T10:09:45.870Z,26.40
2018-09-06T10:12:14.199Z,26.40
2018-09-06T10:14:42.521Z,26.40
2018-09-06T10:17:10.877Z,26.40
2018-09-06T10:19:39.210Z,26.50
2018-09-06T10:22:07.571Z,26.60
2018-09-06T10:24:35.855Z,26.70
2018-09-06T10:27:04.223Z,26.90
2018-09-06T10:29:32.575Z,26.90
2018-09-06T10:32:00.923Z,27.10
2018-09-06T10:34:29.215Z,27.20
2018-09-06T10:36:57.582Z,27.30
2018-09-06T10:39:25.935Z,27.40
2018-09-06T10:41:54.260Z,27.60
2018-09-06T10:44:22.575Z,27.70
2018-09-06T10:46:50.996Z,27.80
2018-09-06T10:49:19.284Z,28.00
2018-09-06T10:51:47.822Z,28.40
2018-09-06T10:54:17.079Z,28.80
2018-09-06T10:56:45.527Z,29.30
2018-09-06T10:59:13.900Z,29.60
2018-09-06T11:01:42.276Z,29.80
2018-09-06T11:04:10.614Z,30.10
2018-09-06T11:06:38.939Z,30.20
2018-09-06T11:09:07.346Z,30.30
2018-09-06T11:11:35.659Z,30.40
2018-09-06T11:14:03.986Z,30.80
2018-09-06T11:16:32.397Z,31.20
2018-09-06T11:19:00.696Z,31.80
2018-09-06T11:21:29.085Z,32.80
2018-09-06T11:23:57.310Z,34.00
2018-09-06T11:26:25.667Z,34.90
2018-09-06T11:28:54.058Z,35.60
2018-09-06T11:31:23.326Z,36.00
2018-09-06T11:33:51.638Z,36.20
2018-09-06T11:36:20.113Z,36.50
2018-09-06T11:38:48.536Z,36.70
2018-09-06T11:41:16.862Z,36.90
2018-09-06T11:43:45.312Z,37.30
2018-09-06T11:46:13.784Z,37.60
2018-09-06T11:48:42.091Z,38.20
2018-09-06T11:51:10.443Z,39.00
2018-09-06T11:53:38.786Z,39.90
2018-09-06T11:56:07.457Z,40.80
2018-09-06T11:58:35.782Z,41.60
2018-09-06T12:01:04.322Z,42.60
2018-09-06T12:03:32.983Z,43.40
2018-09-06T12:06:01.487Z,44.20
2018-09-06T12:08:29.758Z,45.00
2018-09-06T12:10:58.174Z,45.70
2018-09-06T12:13:26.620Z,46.30
2018-09-06T12:15:55.114Z,46.70
2018-09-06T12:18:23.576Z,47.10
2018-09-06T12:20:52.378Z,47.50
2018-09-06T12:23:20.692Z,47.90
2018-09-06T12:25:49.092Z,48.40
2018-09-06T12:28:17.441Z,48.70
2018-09-06T12:30:52.455Z,49.00
2018-09-06T12:33:22.127Z,49.10
2018-09-06T12:35:50.539Z,49.40
2018-09-06T12:38:18.896Z,49.60
2018-09-06T12:40:47.452Z,49.60
2018-09-06T12:43:15.808Z,49.40
2018-09-06T12:45:44.220Z,49.00
2018-09-06T12:48:12.709Z,48.80
2018-09-06T12:50:41.014Z,48.40
2018-09-06T12:53:09.400Z,47.80
2018-09-06T12:55:37.746Z,47.30
2018-09-06T12:58:06.098Z,46.90
2018-09-06T13:00:34.366Z,46.10
2018-09-06T13:03:02.704Z,45.50
2018-09-06T13:05:31.031Z,45.00
2018-09-06T13:07:59.343Z,44.40
2018-09-06T13:10:27.663Z,43.60
2018-09-06T13:12:56.022Z,43.00
2018-09-06T13:15:24.334Z,42.80
2018-09-06T13:17:52.642Z,43.00
2018-09-06T13:20:21.017Z,43.30
2018-09-06T13:22:49.294Z,43.70
2018-09-06T13:25:17.602Z,44.20
2018-09-06T13:27:45.930Z,44.70
2018-09-06T13:30:14.218Z,45.20
2018-09-06T13:32:42.552Z,45.70
2018-09-06T13:35:10.848Z,46.20
2018-09-06T13:37:39.223Z,46.20
2018-09-06T13:40:07.576Z,45.60
2018-09-06T13:42:35.874Z,44.70
2018-09-06T13:45:04.196Z,44.10
2018-09-06T13:47:32.476Z,43.60
2018-09-06T13:50:00.799Z,42.80
2018-09-06T13:52:29.089Z,41.90
2018-09-06T13:54:57.602Z,41.10
2018-09-06T13:57:26.160Z,40.10
2018-09-06T13:59:54.525Z,39.30
2018-09-06T14:02:22.763Z,38.60
2018-09-06T14:04:51.185Z,38.00
2018-09-06T14:07:19.595Z,37.30
2018-09-06T14:09:48.080Z,36.80
2018-09-06T14:12:16.372Z,36.40
2018-09-06T14:14:44.686Z,35.90
2018-09-06T14:17:13.032Z,35.50
2018-09-06T14:19:41.376Z,35.10
2018-09-06T14:22:09.708Z,34.70
2018-09-06T14:24:37.994Z,34.30
2018-09-06T14:27:06.301Z,33.90
2018-09-06T14:29:34.607Z,33.60
2018-09-06T14:32:02.925Z,33.30
2018-09-06T14:34:31.174Z,32.90
2018-09-06T14:36:59.512Z,32.50
2018-09-06T14:39:27.792Z,32.10
2018-09-06T14:41:56.135Z,31.70
2018-09-06T14:44:25.962Z,31.40
2018-09-06T14:46:54.247Z,31.20
2018-09-06T14:49:22.521Z,31.00
2018-09-06T14:51:51.062Z,30.90
2018-09-06T14:54:19.426Z,30.80
2018-09-06T14:56:47.776Z,30.70
2018-09-06T14:59:16.092Z,30.60
2018-09-06T15:01:45.874Z,30.60
2018-09-06T15:04:14.344Z,30.50
2018-09-06T15:06:42.674Z,30.50
2018-09-06T15:09:11.339Z,30.40
2018-09-06T15:11:39.718Z,30.30
2018-09-06T15:14:08.127Z,30.20
2018-09-06T15:16:36.606Z,30.20
2018-09-06T15:19:05.355Z,30.10
2018-09-06T15:21:33.751Z,30.10
2018-09-06T15:24:02.092Z,30.10
2018-09-06T15:26:30.586Z,30.10
2018-09-06T15:28:58.902Z,30.20
2018-09-06T15:31:27.483Z,30.20
2018-09-06T15:33:55.784Z,30.20
2018-09-06T15:36:24.179Z,30.40
2018-09-06T15:38:52.541Z,30.50
2018-09-06T15:41:20.918Z,30.50
2018-09-06T15:43:49.315Z,30.50
2018-09-06T15:46:17.754Z,30.50
2018-09-06T15:48:46.310Z,30.50
2018-09-06T15:51:14.704Z,30.40
2018-09-06T15:53:42.998Z,30.40
2018-09-06T15:56:11.383Z,30.30
2018-09-06T15:58:39.732Z,30.20
2018-09-06T16:01:08.319Z,30.10
2018-09-06T16:03:36.615Z,30.00
2018-09-06T16:06:04.932Z,29.90
2018-09-06T16:08:33.237Z,29.80
2018-09-06T16:11:01.555Z,29.70
2018-09-06T16:13:29.847Z,29.60
2018-09-06T16:15:58.134Z,29.50
2018-09-06T16:18:26.442Z,29.40
2018-09-06T16:20:54.734Z,29.30
2018-09-06T16:23:23.099Z,29.20
2018-09-06T16:25:51.462Z,29.10
2018-09-06T16:28:19.775Z,29.00
2018-09-06T16:30:48.095Z,29.00
2018-09-06T16:33:16.459Z,28.90
2018-09-06T16:35:44.767Z,28.80
2018-09-06T16:38:13.074Z,28.70
2018-09-06T16:40:41.375Z,28.60
2018-09-06T16:43:09.760Z,28.60
2018-09-06T16:45:38.047Z,28.50
2018-09-06T16:48:06.360Z,28.40
2018-09-06T16:50:34.641Z,28.30
2018-09-06T16:53:03.008Z,28.20
2018-09-06T16:55:31.323Z,28.20
2018-09-06T16:57:59.749Z,28.20
2018-09-06T17:00:28.045Z,28.20
2018-09-06T17:02:56.356Z,28.10
2018-09-06T17:05:25.004Z,28.00
2018-09-06T17:07:53.362Z,28.00
2018-09-06T17:10:21.916Z,27.90
2018-09-06T17:12:50.304Z,27.80
2018-09-06T17:15:18.574Z,27.70
2018-09-06T17:17:46.934Z,27.70
2018-09-06T17:20:15.339Z,27.70
2018-09-06T17:22:43.663Z,27.60
2018-09-06T17:25:11.943Z,27.60
2018-09-06T17:27:40.243Z,27.60
2018-09-06T17:30:08.583Z,27.50
2018-09-06T17:32:36.941Z,27.50
2018-09-06T17:35:05.400Z,27.40
2018-09-06T17:37:33.690Z,27.40
2018-09-06T17:40:02.026Z,27.30
2018-09-06T17:42:31.584Z,27.30
2018-09-06T17:44:59.851Z,27.30
2018-09-06T17:47:28.171Z,27.30
2018-09-06T17:49:56.475Z,27.20
2018-09-06T17:52:24.943Z,27.10
2018-09-06T17:54:53.514Z,27.00
2018-09-06T17:57:21.958Z,27.00
2018-09-06T17:59:50.324Z,27.00
2018-09-06T18:02:18.878Z,26.90
2018-09-06T18:04:47.191Z,26.90
2018-09-06T18:07:15.574Z,26.80
2018-09-06T18:09:43.947Z,26.80
2018-09-06T18:12:12.607Z,26.70
2018-09-06T18:14:41.042Z,26.60
2018-09-06T18:17:09.403Z,26.50
2018-09-06T18:19:37.818Z,26.40
2018-09-06T18:22:06.247Z,26.30
2018-09-06T18:24:34.659Z,26.30
2018-09-06T18:27:02.998Z,26.20
2018-09-06T18:29:31.448Z,26.20
2018-09-06T18:31:59.852Z,26.20
2018-09-06T18:34:28.223Z,26.20
2018-09-06T18:36:56.574Z,26.20
2018-09-06T18:39:24.916Z,26.20
2018-09-06T18:41:53.262Z,26.20
2018-09-06T18:44:21.594Z,26.20
2018-09-06T18:46:50.152Z,26.20
2018-09-06T18:49:18.656Z,26.20
2018-09-06T18:51:47.085Z,26.20
2018-09-06T18:54:15.410Z,26.20
2018-09-06T18:56:43.717Z,26.20
2018-09-06T18:59:12.065Z,26.30
2018-09-06T19:01:40.351Z,26.30
2018-09-06T19:04:08.711Z,26.20
2018-09-06T19:06:37.063Z,26.30
2018-09-06T19:09:08.242Z,26.30
2018-09-06T19:11:36.546Z,26.30
2018-09-06T19:14:04.931Z,26.30
2018-09-06T19:16:33.303Z,26.20
2018-09-06T19:19:01.601Z,26.20
2018-09-06T19:21:29.978Z,26.20
2018-09-06T19:23:59.239Z,26.20
2018-09-06T19:26:27.622Z,26.10
2018-09-06T19:28:56.200Z,26.10
2018-09-06T19:31:24.534Z,26.10
2018-09-06T19:33:52.886Z,26.00
2018-09-06T19:36:21.187Z,26.00
2018-09-06T19:38:49.522Z,26.00
2018-09-06T19:41:17.923Z,25.90
2018-09-06T19:43:46.290Z,25.80
2018-09-06T19:46:14.858Z,25.80
2018-09-06T19:48:43.209Z,25.80
2018-09-06T19:51:11.644Z,25.70
2018-09-06T19:53:39.997Z,25.60
2018-09-06T19:56:08.479Z,25.60
2018-09-06T19:58:36.822Z,25.60
2018-09-06T20:01:05.467Z,25.60
2018-09-06T20:03:33.827Z,25.60
2018-09-06T20:06:02.444Z,25.50
2018-09-06T20:08:30.935Z,25.40
2018-09-06T20:10:59.446Z,25.40
2018-09-06T20:13:27.765Z,25.30
2018-09-06T20:15:57.163Z,25.20
2018-09-06T20:18:25.692Z,25.20
2018-09-06T20:20:54.275Z,25.20
2018-09-06T20:23:23.091Z,25.20
2018-09-06T20:25:51.552Z,25.20
2018-09-06T20:28:20.116Z,25.20
2018-09-06T20:30:48.363Z,25.20
2018-09-06T20:33:16.734Z,25.00
2018-09-06T20:35:45.177Z,25.00
2018-09-06T20:38:13.531Z,24.90
2018-09-06T20:40:41.883Z,24.80
2018-09-06T20:43:10.358Z,24.70
2018-09-06T20:45:38.762Z,24.70
2018-09-06T20:48:07.790Z,24.60
2018-09-06T20:50:36.296Z,24.60
2018-09-06T20:53:04.857Z,24.60
2018-09-06T20:55:33.432Z,24.70
2018-09-06T20:58:01.852Z,24.70
2018-09-06T21:00:30.464Z,24.80
2018-09-06T21:02:58.837Z,24.80
2018-09-06T21:05:27.144Z,24.70
2018-09-06T21:07:55.462Z,24.70
2018-09-06T21:10:23.885Z,24.70
2018-09-06T21:12:52.385Z,24.70
2018-09-06T21:15:20.727Z,24.70
2018-09-06T21:17:49.048Z,24.70
2018-09-06T21:20:17.459Z,24.70
2018-09-06T21:22:45.907Z,24.60
2018-09-06T21:25:14.272Z,24.60
2018-09-06T21:27:42.577Z,24.50
2018-09-06T21:30:10.977Z,24.40
2018-09-06T21:32:39.320Z,24.30
2018-09-06T21:35:07.826Z,24.30
2018-09-06T21:37:36.520Z,24.30
2018-09-06T21:40:05.016Z,24.30
2018-09-06T21:42:33.296Z,24.30
2018-09-06T21:45:01.728Z,24.30
2018-09-06T21:47:30.375Z,24.30
2018-09-06T21:50:00.152Z,24.30
2018-09-06T21:52:28.558Z,24.30
2018-09-06T21:54:56.992Z,24.30
2018-09-06T21:57:25.308Z,24.30
2018-09-06T21:59:53.714Z,24.30
2018-09-06T22:02:27.409Z,24.30
2018-09-06T22:04:55.742Z,24.20
2018-09-06T22:07:24.083Z,24.20
2018-09-06T22:09:52.471Z,24.20
2018-09-06T22:12:20.747Z,24.20
2018-09-06T22:14:50.526Z,24.20
2018-09-06T22:17:18.826Z,24.10
2018-09-06T22:19:47.716Z,24.10
2018-09-06T22:22:16.188Z,24.10
2018-09-06T22:24:44.627Z,24.00
2018-09-06T22:27:12.965Z,24.00
2018-09-06T22:29:41.353Z,23.90
2018-09-06T22:32:10.302Z,23.90
2018-09-06T22:34:38.885Z,23.90
2018-09-06T22:37:07.263Z,23.90
2018-09-06T22:39:35.639Z,23.90
2018-09-06T22:42:03.966Z,23.90
2018-09-06T22:44:32.265Z,23.90
2018-09-06T22:47:00.607Z,23.90
2018-09-06T22:49:29.119Z,23.80
2018-09-06T22:51:57.494Z,23.70
2018-09-06T22:54:25.998Z,23.70
2018-09-06T22:56:54.336Z,23.70
2018-09-06T22:59:22.672Z,23.70
2018-09-06T23:01:51.060Z,23.70
2018-09-06T23:04:19.379Z,23.70
2018-09-06T23:06:47.806Z,23.70
2018-09-06T23:09:16.138Z,23.70
2018-09-06T23:11:44.509Z,23.80
2018-09-06T23:14:12.817Z,23.80
2018-09-06T23:16:41.223Z,23.80
2018-09-06T23:19:09.515Z,23.80
2018-09-06T23:21:37.874Z,23.80
2018-09-06T23:24:06.198Z,23.80
2018-09-06T23:26:34.610Z,23.80
2018-09-06T23:29:02.962Z,23.80
2018-09-06T23:31:31.313Z,23.80
2018-09-06T23:33:59.686Z,23.80
2018-09-06T23:36:28.070Z,23.80
2018-09-06T23:38:56.535Z,23.80
2018-09-06T23:41:24.911Z,23.70
2018-09-06T23:43:53.206Z,23.70
2018-09-06T23:46:21.527Z,23.70
2018-09-06T23:48:49.846Z,23.70
2018-09-06T23:51:18.226Z,23.60
2018-09-06T23:53:46.610Z,23.60
2018-09-06T23:56:14.911Z,23.60
2018-09-06T23:58:43.212Z,23.60
